首页
METAR-TAF:

METAR-TAF

机场 :

安吉利斯港, 华盛顿, 美国

纬度: 48-07-20N, 经度: 123-30-19W, 海拔: 87米

当前天气观测

该预报发布于1小时和3分钟前的00:53 UTC
风速12节,风向西北,有时为19节阵风
温度 11°C
湿度 62%
气压 1025 hPa
能見度: 16.1公里
天空无云

METAR: KCLM 080053Z AUTO 31012G19KT 10SM CLR 11/04 A3028 RMK AO2 SLP255 T01060039

时间: 18:56 (01:56 UTC)

预报

该预报发布于2小时和18分钟前的23:38 UTC
预报有效从08日的 00点(UTC)到 08日的 24点(UTC)
风速12节,风向西北,有时为22节阵风
能見度: 10公里
散云层高于5000英尺
从 08日的 0700点(UTC)
风速9节,风向西
能見度: 10公里
阴天层高于5000英尺
从 08日的 1900点(UTC)
风速6节,风向
能見度: 10公里
阴天层高于5000英尺

TAF: KCLM 072338Z 0800/0824 31012G22KT P6SM SCT050 FM080700 27009KT P6SM OVC050 FM081900 35006KT P6SM OVC050

超过4000个机场的气象观测和天气预报(METAR&TAF报告)。

可查询的气象台以黄色和红色小点在地图上表示。

将鼠标移到小点上方,可查看气象台名称。

然后点击查看天气观测和预报。

如需切换地图:点击带黑十字的绿色按钮放大地图;点击带横线的绿色按钮缩小地图;或者点击绿色箭头查看邻近地区的地图。


METAR-TAF: